Aeroporto :
LOGIN :

Iscrizione | Disclaimer

   EN    FR    IT 

 










Sommario :    VFR   VFR Marginale   IFR   IFR Intensivo   IFR Molto Intensivo
Visibilità : 
Base nubi : 
>= 8 km
>= 3000ft
5 / 8 km
1000 / 3000 ft
1500m / 5 km
500 / 1000 ft
800 / 1500m
200 / 500 ft
< 800m
< 200 ft
Simboli :   Temporali  Nebbia  Neve Forte  Precipitazioni Forti  Vento > 20 kt
SIGMETs :   Varie  Temporali  Ghiacco  Turbolenza  Onda orograficha  Ceneri Vulcaniche






- Altitudine del aeroporto : 141 ft
- Codice IATA : TGD


LYPG - Podgorica - Montenegro

ULTIMO METAR :
  • 300730Z 34003KT CAVOK 15/03 Q1012 NOSIG

METARs OBSOLETI :
  • 300700Z VRB02KT CAVOK 12/04 Q1012 NOSIG
  • 300630Z VRB02KT CAVOK 09/06 Q1012 NOSIG
  • 300600Z VRB02KT CAVOK 08/06 Q1012 NOSIG
  • 300530Z 02004KT CAVOK 08/04 Q1012 NOSIG
  • 300500Z VRB01KT CAVOK 06/04 Q1012 NOSIG

TAF TAF LYPG
Valido dal 30 a 06 ore il 31 a 06 ore UTC


300500Z 3006/3106 15006KT 9999 FEW050 BKN080 TX16/3013Z TN08/3006Z
BECMG 3018/3020 02015KT



MetMap, La meteo Aeronautica in un colpo d'occhio ! - Copyright ORBIFLY Dicembre 2007 - Disclaimer

ORBIFLY MET'MAP TEAM :

Programmazione e sviluppo : Alexandra Zaïnal
Concezione : Baudouin d'Aumeries
Aiuto per la programmazione : Marc-Olivier Méhu
Supporto tecnico e logistico : Manuel Goepfert
Aiuto per la traduzione : Arnaldo La Scala

Contatto : metmap@orbifly.com




FONTI E CREDITI :

   NOAA